LIPE Airport Information

Runway Information
Runway 12 Length 9186 ft width 150 ft
Elevation 120 ft Threshold 1007 ft Heading 117
Runway 30 Length 9186 ft Width 150 ft
Elevation 120 ft Threshold 1188 ft Heading 297
Airport Frequencies
Type APP Name APP Frequency 120.1 MHZ
Type ATIS Name ATIS Frequency 134.875 MHZ
Type GND Name GND Frequency 129.925 MHZ
Type TWR Name TWR Frequency 120.8 MHZ
Airport Navaids
Type VOR-DME Name Bologna Frequency 112200 KHZ
Type NDB Name Bologna Frequency 413 KHZ
Airport Weather Information & NOTAM
ADDS - METARS form results

(1331 UTC 16 April 2021)
Data provider http://aviationweather.gov/metar/data/
 
METAR text: LIPE 161320Z 04010KT 010V070 9999 SCT045 13/03 Q1018
Conditions at: LIPE (BOLOGNA/BORGO (A, IT) observed 1320 UTC 16 April 2021
Temperature: 13.0°C (55°F)
Dewpoint: 3.0°C (37°F) [RH = 51%]
Pressure (altimeter): 30.06 inches Hg (1018.0 mb)
Winds: from the NE (40 degrees) at 12 MPH (10 knots; 5.1 m/s)
Visibility: 6 or more miles (10+ km)
Ceiling: at least 12,000 feet AGL
Clouds: scattered clouds at 4500 feet AGL
Weather: no significant weather observed at this time

METAR text: LIPE 161250Z 08011KT 050V110 9999 SCT050 14/02 Q1019
Conditions at: LIPE (BOLOGNA/BORGO (A, IT) observed 1250 UTC 16 April 2021
Temperature: 14.0°C (57°F)
Dewpoint: 2.0°C (36°F) [RH = 44%]
Pressure (altimeter): 30.09 inches Hg (1019.0 mb)
Winds: from the E (80 degrees) at 13 MPH (11 knots; 5.7 m/s)
Visibility: 6 or more miles (10+ km)
Ceiling: at least 12,000 feet AGL
Clouds: scattered clouds at 5000 feet AGL
Weather: no significant weather observed at this time

Forecast for: COR
Text: TAF COR LIPE 161310Z 1612/1712 08010KT 9999 SCT030
Forecast period: 1200 to 1800 UTC 16 April 2021
Forecast type: FROM: standard forecast or significant change
Winds: from the E (80 degrees) at 12 MPH (10 knots; 5.1 m/s)
Visibility: 6 or more miles (10+ km)
Ceiling: at least 12,000 feet AGL
Clouds: scattered clouds at 3000 feet AGL
Weather: no significant weather forecast for this period
Text: BECMG 1618/1620 28006KT
Forecast period: 1800 UTC 16 April 2021 to 0800 UTC 17 April 2021
Forecast type: BECOMING: Conditions expected to become as follows by 2000 UTC 16 April 2021
Winds: from the W (280 degrees) at 7 MPH (6 knots; 3.1 m/s)
Visibility: 6 or more miles (10+ km)
Ceiling: at least 12,000 feet AGL
Clouds: scattered clouds at 3000 feet AGL
Weather: no significant weather forecast for this period
Text: BECMG 1708/1710 05010KT
Forecast period: 0800 to 1200 UTC 17 April 2021
Forecast type: BECOMING: Conditions expected to become as follows by 1000 UTC 17 April 2021
Winds: from the NE (50 degrees) at 12 MPH (10 knots; 5.1 m/s)
Visibility: 6 or more miles (10+ km)
Ceiling: at least 12,000 feet AGL
Clouds: scattered clouds at 3000 feet AGL
Weather: no significant weather forecast for this period